Time;durP1;ratioP1;P1;durP2;ratioP2;P2;SDS_P1;SDS_P2;PMS_P1;PMS_P2;Temp;Humidity;BMP_temperature;BMP_pressure;BME280_temperature;BME280_humidity;BME280_pressure;Samples;Min_cycle;Max_cycle;Signal;HPM_P1;HPM_P2
2023/09/10 00:01:00;;;;;;;15.50;5.18;;;;;;;20.75;64.75;101201.78;2094741;28;20032;-71
2023/09/10 00:02:02;;;;;;;7.97;5.10;;;;;;;20.73;64.81;101204.03;2078576;28;20038;-71
2023/09/10 00:03:05;;;;;;;11.48;4.70;;;;;;;20.73;64.92;101203.22;2078822;28;20116;-72
2023/09/10 00:04:09;;;;;;;12.88;4.95;;;;;;;20.73;65.00;101200.50;2095381;28;20137;-72
2023/09/10 00:05:11;;;;;;;12.90;5.32;;;;;;;20.72;64.80;101196.97;2094169;28;20112;-72
2023/09/10 00:06:13;;;;;;;9.95;5.50;;;;;;;20.69;64.85;101194.09;2073046;28;20629;-69
2023/09/10 00:07:17;;;;;;;10.52;4.85;;;;;;;20.71;64.91;101200.00;2082026;28;21439;-71
2023/09/10 00:08:20;;;;;;;11.23;5.10;;;;;;;20.70;64.94;101198.44;2088058;28;20044;-71
2023/09/10 00:09:23;;;;;;;7.57;5.13;;;;;;;20.70;64.98;101196.47;2094845;28;20102;-71
2023/09/10 00:10:27;;;;;;;10.18;4.93;;;;;;;20.70;64.76;101192.97;2095586;28;20073;-70
2023/09/10 00:11:29;;;;;;;19.17;6.15;;;;;;;20.70;64.67;101192.97;2095477;28;20029;-71
2023/09/10 00:12:30;;;;;;;15.55;4.88;;;;;;;20.68;64.80;101195.22;2103965;27;20106;-71
2023/09/10 00:13:34;;;;;;;9.52;4.60;;;;;;;20.69;64.87;101196.84;2094597;28;20024;-71
2023/09/10 00:14:35;;;;;;;7.95;4.93;;;;;;;20.68;64.85;101201.50;2095665;28;20035;-70
2023/09/10 00:15:37;;;;;;;6.72;5.10;;;;;;;20.69;64.69;101196.84;2094891;28;20028;-72
2023/09/10 00:16:38;;;;;;;8.48;5.13;;;;;;;20.67;64.77;101199.88;2086746;28;20025;-73
2023/09/10 00:17:40;;;;;;;14.00;5.10;;;;;;;20.68;64.80;101200.69;2086985;28;20882;-69
2023/09/10 00:18:45;;;;;;;8.63;4.75;;;;;;;20.66;64.75;101197.50;2095070;28;20022;-72
2023/09/10 00:19:46;;;;;;;10.55;5.35;;;;;;;20.66;64.95;101200.22;2086842;28;20127;-72
2023/09/10 00:20:55;;;;;;;7.50;4.78;;;;;;;20.66;64.89;101192.03;2078442;28;20033;-71
2023/09/10 00:21:56;;;;;;;7.68;4.70;;;;;;;20.66;65.07;101201.03;2084209;28;20048;-71
2023/09/10 00:22:58;;;;;;;14.73;4.47;;;;;;;20.66;64.70;101197.50;2104044;28;20917;-71
2023/09/10 00:24:02;;;;;;;9.93;5.07;;;;;;;20.59;64.82;101185.16;2111643;27;20144;-71
2023/09/10 00:25:06;;;;;;;9.23;5.30;;;;;;;20.64;64.74;101194.28;2104364;27;20028;-72
2023/09/10 00:26:11;;;;;;;10.70;5.18;;;;;;;20.62;64.74;101191.91;2095366;28;20173;-72
2023/09/10 00:27:18;;;;;;;10.13;4.82;;;;;;;20.61;64.51;101195.75;2104270;27;20075;-72
2023/09/10 00:28:20;;;;;;;7.20;5.00;;;;;;;20.60;64.52;101183.22;2094886;28;20109;-72
2023/09/10 00:29:22;;;;;;;7.00;4.72;;;;;;;20.59;64.53;101185.16;2095529;27;20028;-72
2023/09/10 00:30:24;;;;;;;10.00;4.63;;;;;;;20.59;64.60;101182.44;2103320;28;20134;-72
2023/09/10 00:31:26;;;;;;;8.38;4.68;;;;;;;20.58;64.65;101186.25;2086443;28;20067;-72
2023/09/10 00:32:30;;;;;;;9.35;4.70;;;;;;;20.59;64.51;101187.88;2102011;27;20012;-72
2023/09/10 00:33:31;;;;;;;11.82;4.90;;;;;;;20.57;64.63;101181.16;2094713;28;21396;-72
2023/09/10 00:34:35;;;;;;;10.63;4.70;;;;;;;20.56;64.67;101183.09;2078967;28;20032;-72
2023/09/10 00:35:37;;;;;;;7.88;4.72;;;;;;;20.55;64.41;101181.50;2087086;28;20029;-72
2023/09/10 00:36:39;;;;;;;9.13;4.60;;;;;;;20.53;64.26;101183.75;2083226;27;20028;-72
2023/09/10 00:37:40;;;;;;;6.45;4.95;;;;;;;20.51;64.11;101180.53;2095101;28;20855;-72
2023/09/10 00:38:42;;;;;;;6.57;4.88;;;;;;;20.52;64.14;101178.59;2095239;27;20832;-72
2023/09/10 00:39:47;;;;;;;7.68;4.88;;;;;;;20.50;64.23;101175.38;2103672;27;20174;-72
2023/09/10 00:40:49;;;;;;;9.98;4.60;;;;;;;20.49;64.13;101171.84;2095557;28;20128;-72
2023/09/10 00:41:54;;;;;;;10.25;4.30;;;;;;;20.49;64.19;101173.75;2103108;28;20158;-72
2023/09/10 00:42:58;;;;;;;8.25;4.85;;;;;;;20.48;64.14;101172.16;2096828;27;20090;-72
2023/09/10 00:44:00;;;;;;;8.00;4.60;;;;;;;20.49;64.22;101177.31;2095356;28;20916;-72
2023/09/10 00:45:24;;;;;;;9.32;4.65;;;;;;;20.48;64.25;101178.44;2087200;28;20063;-72
2023/09/10 00:46:25;;;;;;;8.10;4.97;;;;;;;20.49;64.15;101171.84;2090428;28;20040;-72
2023/09/10 00:47:35;;;;;;;6.72;4.97;;;;;;;20.49;64.15;101176.50;2089964;28;20456;-72
2023/09/10 00:48:37;;;;;;;9.98;4.88;;;;;;;20.49;64.00;101165.56;2079148;28;20188;-71
2023/09/10 00:49:39;;;;;;;6.03;4.57;;;;;;;20.47;64.01;101163.19;2070171;28;20588;-72
2023/09/10 00:50:50;;;;;;;9.25;4.65;;;;;;;20.47;63.89;101171.38;2088662;28;20036;-72
2023/09/10 00:51:54;;;;;;;8.32;5.00;;;;;;;20.48;63.88;101170.22;2089559;28;20147;-72
2023/09/10 00:52:58;;;;;;;9.63;4.75;;;;;;;20.49;64.01;101171.84;2087163;28;20048;-72
2023/09/10 00:54:01;;;;;;;7.82;4.70;;;;;;;20.48;64.03;101172.97;2095478;28;20024;-72
2023/09/10 00:55:04;;;;;;;7.15;4.93;;;;;;;20.49;63.95;101171.84;2094459;28;20954;-73
2023/09/10 00:56:10;;;;;;;8.20;4.95;;;;;;;20.48;64.02;101170.22;2095353;28;20073;-73
2023/09/10 00:57:14;;;;;;;8.38;5.22;;;;;;;20.49;64.14;101171.84;2109427;27;20838;-72
2023/09/10 00:58:17;;;;;;;7.60;4.90;;;;;;;20.51;63.88;101163.31;2103940;28;20032;-72
2023/09/10 00:59:19;;;;;;;7.47;5.00;;;;;;;20.49;64.20;101160.09;2095593;28;20036;-69
2023/09/10 01:00:24;;;;;;;11.32;5.40;;;;;;;20.49;64.09;101166.38;2096071;27;20036;-70
2023/09/10 01:01:29;;;;;;;10.48;5.13;;;;;;;20.50;63.95;101170.72;2087378;28;20957;-71
2023/09/10 01:02:31;;;;;;;8.82;4.95;;;;;;;20.49;63.94;101155.47;2078922;28;20025;-70
2023/09/10 01:03:35;;;;;;;7.88;5.38;;;;;;;20.49;64.00;101163.66;2086597;28;20080;-70
2023/09/10 01:04:37;;;;;;;10.13;4.93;;;;;;;20.49;64.11;101165.56;2095684;27;21521;-71
2023/09/10 01:05:39;;;;;;;8.45;4.82;;;;;;;20.49;63.98;101163.66;2103212;27;20317;-70
2023/09/10 01:06:40;;;;;;;6.82;5.38;;;;;;;20.49;64.04;101160.09;2089562;28;20216;-69
2023/09/10 01:07:43;;;;;;;8.25;5.30;;;;;;;20.49;64.10;101162.84;2092007;28;21314;-71
2023/09/10 01:08:44;;;;;;;9.50;5.57;;;;;;;20.50;64.20;101167.19;2078217;28;21324;-70
2023/09/10 01:09:48;;;;;;;8.32;5.15;;;;;;;20.50;64.32;101167.19;2078412;28;20035;-70
2023/09/10 01:11:05;;;;;;;9.02;5.47;;;;;;;20.50;64.06;101169.91;2103177;27;20105;-71
2023/09/10 01:12:19;;;;;;;7.28;4.97;;;;;;;20.50;64.04;101162.53;2107771;27;20023;-71
2023/09/10 01:13:20;;;;;;;6.63;5.00;;;;;;;20.49;64.09;101160.09;2088498;28;20041;-71
2023/09/10 01:14:52;;;;;;;8.43;5.40;;;;;;;20.48;64.20;101158.50;2078662;28;20029;-70
2023/09/10 01:16:02;;;;;;;11.95;5.65;;;;;;;20.47;64.07;101163.19;2099505;27;20833;-71
2023/09/10 01:17:23;;;;;;;9.73;5.53;;;;;;;20.48;64.11;101164.78;2095972;28;20029;-70
2023/09/10 01:18:36;;;;;;;8.90;5.63;;;;;;;20.50;64.30;101161.72;2101324;27;20063;-70
2023/09/10 01:19:45;;;;;;;10.68;5.32;;;;;;;20.50;63.92;101161.72;2084600;28;20037;-70
2023/09/10 01:21:13;;;;;;;6.82;5.18;;;;;;;20.50;63.98;101161.72;2080420;28;20033;-71
2023/09/10 01:22:43;;;;;;;6.47;5.03;;;;;;;20.51;64.12;101169.59;2106270;27;20044;-71
2023/09/10 01:23:52;;;;;;;7.40;5.05;;;;;;;20.52;63.99;101162.22;2103099;28;21283;-70
2023/09/10 01:24:54;;;;;;;7.85;5.72;;;;;;;20.51;63.99;101166.88;2078892;28;20034;-72
2023/09/10 01:26:03;;;;;;;8.30;5.60;;;;;;;20.52;63.93;101160.31;2086792;28;21352;-73
2023/09/10 01:27:06;;;;;;;7.78;5.60;;;;;;;20.53;64.05;101166.56;2097739;28;20032;-70
2023/09/10 01:28:08;;;;;;;11.82;5.68;;;;;;;20.52;63.99;101160.31;2086736;28;20131;-70
2023/09/10 01:29:17;;;;;;;8.25;5.30;;;;;;;20.54;63.87;101163.47;2085934;28;20021;-73
2023/09/10 01:30:21;;;;;;;9.15;5.18;;;;;;;20.54;64.19;101163.47;2096404;28;20194;-73
2023/09/10 01:31:22;;;;;;;7.75;5.38;;;;;;;20.55;64.14;101165.09;2086764;28;20171;-73
2023/09/10 01:32:38;;;;;;;9.93;5.55;;;;;;;20.55;63.96;101156.91;2094196;27;20036;-72
2023/09/10 01:33:50;;;;;;;9.55;5.82;;;;;;;20.57;63.76;101156.56;2094601;28;20025;-73
2023/09/10 01:35:27;;;;;;;13.60;6.15;;;;;;;20.56;63.84;101161.22;2087430;28;20029;-73
2023/09/10 01:36:38;;;;;;;7.72;5.55;;;;;;;20.56;63.68;101158.50;2083564;27;20151;-72
2023/09/10 01:37:49;;;;;;;13.43;6.15;;;;;;;20.57;63.51;101157.34;2093573;28;20016;-72
2023/09/10 01:39:20;;;;;;;8.25;5.60;;;;;;;20.57;63.63;101162.03;2105002;27;20016;-71
2023/09/10 01:40:32;;;;;;;7.10;5.55;;;;;;;20.57;63.79;101162.03;2090532;28;20024;-71
2023/09/10 01:41:37;;;;;;;9.85;5.30;;;;;;;20.53;63.73;101161.09;2091119;27;20044;-70
2023/09/10 01:42:41;;;;;;;12.27;6.20;;;;;;;20.57;63.68;101154.63;2095566;28;20210;-70
2023/09/10 01:43:43;;;;;;;7.97;5.65;;;;;;;20.57;63.79;101162.81;2096881;27;20139;-70
2023/09/10 01:44:46;;;;;;;10.52;5.40;;;;;;;20.54;63.93;101155.28;2097101;28;20024;-71
2023/09/10 01:45:49;;;;;;;13.20;5.68;;;;;;;20.56;63.81;101161.22;2087851;28;20025;-71
2023/09/10 01:46:53;;;;;;;8.45;5.57;;;;;;;20.56;63.73;101161.22;2095615;28;20036;-71
2023/09/10 01:47:57;;;;;;;8.60;5.88;;;;;;;20.55;63.77;101159.63;2079960;28;21283;-71
2023/09/10 01:48:58;;;;;;;7.72;5.68;;;;;;;20.56;63.69;101163.16;2088539;28;21524;-71
2023/09/10 01:50:01;;;;;;;8.48;5.88;;;;;;;20.57;63.61;101156.56;2096581;27;20040;-72
2023/09/10 01:51:05;;;;;;;8.23;6.03;;;;;;;20.56;63.64;101157.69;2104850;27;21695;-71
2023/09/10 01:52:06;;;;;;;8.30;5.50;;;;;;;20.56;63.70;101154.97;2112350;27;20035;-71
2023/09/10 01:53:08;;;;;;;9.20;5.93;;;;;;;20.57;63.67;101157.34;2095842;28;20027;-71
2023/09/10 01:54:10;;;;;;;11.15;5.88;;;;;;;20.56;63.60;101155.75;2087770;28;20013;-71
2023/09/10 01:55:11;;;;;;;10.07;6.00;;;;;;;20.57;63.60;101149.16;2087871;28;20029;-71
2023/09/10 01:56:15;;;;;;;10.02;6.22;;;;;;;20.56;63.63;101154.97;2088178;28;20033;-71
2023/09/10 01:57:18;;;;;;;6.97;5.20;;;;;;;20.55;63.48;101154.19;2093152;27;20041;-71
2023/09/10 01:58:22;;;;;;;9.20;5.63;;;;;;;20.56;63.62;101154.97;2104315;28;20038;-71
2023/09/10 01:59:24;;;;;;;6.22;5.40;;;;;;;20.55;63.61;101148.72;2087992;28;20021;-71
2023/09/10 02:00:27;;;;;;;9.90;6.28;;;;;;;20.55;63.61;101156.91;2087749;28;20017;-71
2023/09/10 02:01:30;;;;;;;10.35;5.93;;;;;;;20.56;63.62;101163.97;2087729;28;20933;-72
2023/09/10 02:02:34;;;;;;;14.25;5.93;;;;;;;20.55;63.59;101154.19;2092879;27;20086;-71
2023/09/10 02:03:36;;;;;;;10.38;5.80;;;;;;;20.55;63.64;101154.19;2096585;28;20025;-71
2023/09/10 02:04:44;;;;;;;18.83;7.03;;;;;;;20.54;63.70;101147.09;2097300;27;20851;-71
2023/09/10 02:05:48;;;;;;;8.70;5.53;;;;;;;20.54;63.80;101151.75;2105358;27;20027;-70
2023/09/10 02:06:50;;;;;;;8.07;5.80;;;;;;;20.54;63.73;101152.56;2096387;28;20113;-70
2023/09/10 02:07:56;;;;;;;9.82;5.95;;;;;;;20.54;63.81;101152.56;2093183;28;20036;-69
2023/09/10 02:08:57;;;;;;;10.70;7.45;;;;;;;20.54;63.62;101155.28;2089773;28;20047;-71
2023/09/10 02:09:59;;;;;;;9.43;6.10;;;;;;;20.55;63.69;101147.88;2096008;28;20871;-71
2023/09/10 02:11:04;;;;;;;9.98;5.85;;;;;;;20.56;63.55;101147.56;2079255;28;20140;-70
2023/09/10 02:12:07;;;;;;;12.02;6.30;;;;;;;20.55;63.85;101154.19;2065583;28;20039;-71
2023/09/10 02:13:09;;;;;;;9.38;5.95;;;;;;;20.55;63.91;101145.16;2088117;27;20145;-71
2023/09/10 02:14:11;;;;;;;9.35;6.38;;;;;;;20.52;63.91;101138.44;2096529;28;21702;-71
2023/09/10 02:15:13;;;;;;;17.73;6.30;;;;;;;20.52;63.82;101138.44;2087411;28;20030;-71
2023/09/10 02:16:15;;;;;;;8.65;5.82;;;;;;;20.52;63.98;101138.44;2087765;28;20257;-71
2023/09/10 02:17:17;;;;;;;9.10;6.22;;;;;;;20.52;63.94;101143.91;2095138;28;20577;-71
2023/09/10 02:18:19;;;;;;;10.27;6.53;;;;;;;20.51;63.86;101142.28;2079592;28;20277;-71
2023/09/10 02:19:20;;;;;;;9.40;6.18;;;;;;;20.50;63.93;101140.66;2087664;27;21349;-71
2023/09/10 02:20:27;;;;;;;10.45;6.00;;;;;;;20.51;63.78;101141.47;2112828;27;20159;-71
2023/09/10 02:21:30;;;;;;;9.73;5.70;;;;;;;20.51;63.96;101136.81;2101352;28;20036;-71
2023/09/10 02:22:34;;;;;;;13.70;6.13;;;;;;;20.50;64.01;101135.19;2096179;28;20157;-71
2023/09/10 02:23:37;;;;;;;13.70;6.25;;;;;;;20.51;63.95;101136.00;2095533;28;20031;-71
2023/09/10 02:24:40;;;;;;;11.15;6.05;;;;;;;20.51;63.97;101136.81;2087837;28;20025;-73
2023/09/10 02:25:42;;;;;;;9.30;6.47;;;;;;;20.51;64.14;101142.28;2095810;28;20020;-73
2023/09/10 02:26:44;;;;;;;9.13;6.20;;;;;;;20.51;64.16;101142.28;2079292;28;20115;-71
2023/09/10 02:27:46;;;;;;;8.05;6.30;;;;;;;20.51;63.97;101142.28;2085173;27;20028;-71
2023/09/10 02:28:48;;;;;;;11.20;6.45;;;;;;;20.51;64.21;101134.09;2091060;28;20076;-71
2023/09/10 02:29:51;;;;;;;11.52;6.70;;;;;;;20.51;64.04;101130.53;2074930;28;20757;-71
2023/09/10 02:30:53;;;;;;;9.52;5.80;;;;;;;20.51;64.16;101134.09;2063633;28;20066;-73
2023/09/10 02:31:56;;;;;;;7.50;5.90;;;;;;;20.52;64.16;101132.97;2079593;28;20033;-70
2023/09/10 02:32:58;;;;;;;12.02;6.40;;;;;;;20.52;64.12;101132.97;2103039;27;20033;-70
2023/09/10 02:34:01;;;;;;;10.63;6.18;;;;;;;20.51;64.29;101136.81;2087528;28;20119;-70
2023/09/10 02:35:03;;;;;;;9.52;6.50;;;;;;;20.52;63.99;101132.16;2088411;28;20025;-70
2023/09/10 02:36:07;;;;;;;11.40;6.38;;;;;;;20.54;64.06;101136.16;2079905;28;20880;-70
2023/09/10 02:37:09;;;;;;;12.88;6.72;;;;;;;20.52;64.03;101132.97;2068482;28;20037;-70
2023/09/10 02:38:10;;;;;;;7.93;6.30;;;;;;;20.53;63.99;101134.56;2075702;28;20084;-71
2023/09/10 02:39:11;;;;;;;8.10;5.97;;;;;;;20.52;64.18;101132.97;2087419;28;20509;-70
2023/09/10 02:40:13;;;;;;;10.05;6.40;;;;;;;20.54;64.10;101133.44;2095384;28;20824;-70
2023/09/10 02:41:15;;;;;;;10.68;6.50;;;;;;;20.55;64.27;101136.97;2087418;28;20072;-70
2023/09/10 02:42:17;;;;;;;15.23;6.65;;;;;;;20.54;64.31;101136.16;2079106;28;20030;-70
2023/09/10 02:43:21;;;;;;;10.73;6.63;;;;;;;20.53;64.05;101131.03;2080185;28;22817;-70
2023/09/10 02:44:23;;;;;;;12.27;7.13;;;;;;;20.54;64.24;101136.16;2088263;28;20178;-70
2023/09/10 02:45:26;;;;;;;8.68;6.35;;;;;;;20.52;64.18;101130.25;2087086;28;20147;-72
2023/09/10 02:46:28;;;;;;;7.55;5.93;;;;;;;20.54;64.14;101129.91;2087298;28;20514;-73
2023/09/10 02:47:29;;;;;;;8.02;6.47;;;;;;;20.53;64.10;101131.84;2078838;28;20041;-70
2023/09/10 02:48:31;;;;;;;11.75;6.05;;;;;;;20.53;64.21;101129.09;2095746;28;21553;-70
2023/09/10 02:49:34;;;;;;;9.50;6.38;;;;;;;20.55;64.09;101131.50;2095849;28;20029;-70
2023/09/10 02:50:36;;;;;;;13.48;6.88;;;;;;;20.52;63.91;101127.53;2078945;28;20022;-70
2023/09/10 02:51:37;;;;;;;10.57;7.05;;;;;;;20.52;64.02;101132.16;2079160;28;20018;-70
2023/09/10 02:52:40;;;;;;;11.25;6.85;;;;;;;20.50;64.27;101126.22;2086904;28;20025;-73
2023/09/10 02:53:43;;;;;;;9.55;6.20;;;;;;;20.51;64.11;101130.53;2095281;28;20020;-71
2023/09/10 02:54:45;;;;;;;12.27;6.38;;;;;;;20.51;64.30;101128.63;2096304;27;20051;-72
2023/09/10 02:55:47;;;;;;;11.52;6.18;;;;;;;20.48;64.07;101121.06;2095743;28;20119;-72
2023/09/10 02:56:51;;;;;;;10.38;6.38;;;;;;;20.52;64.06;101132.97;2079202;28;20071;-73
2023/09/10 02:57:52;;;;;;;8.98;6.63;;;;;;;20.53;64.16;101129.09;2079576;28;20035;-71
2023/09/10 02:58:56;;;;;;;10.60;6.68;;;;;;;20.53;64.21;101131.03;2087832;28;20067;-71
2023/09/10 02:59:57;;;;;;;10.30;6.15;;;;;;;20.53;64.13;101131.84;2095965;27;20027;-70
2023/09/10 03:01:05;;;;;;;10.07;6.97;;;;;;;20.55;64.21;101131.50;2103813;27;20030;-70
2023/09/10 03:02:12;;;;;;;9.68;6.70;;;;;;;20.54;64.06;101129.91;2105998;27;20145;-71
2023/09/10 03:03:14;;;;;;;9.90;6.40;;;;;;;20.54;64.33;101130.69;2104956;27;20028;-72
2023/09/10 03:04:15;;;;;;;14.60;8.25;;;;;;;20.55;64.12;101126.84;2105198;27;20032;-71
2023/09/10 03:05:18;;;;;;;10.73;6.43;;;;;;;20.50;64.25;101112.56;2103911;28;20036;-71
2023/09/10 03:06:19;;;;;;;9.00;6.13;;;;;;;20.56;64.10;101122.97;2096650;27;20075;-71
2023/09/10 03:07:22;;;;;;;8.65;6.40;;;;;;;20.55;64.12;101115.94;2092253;28;20189;-71
2023/09/10 03:08:25;;;;;;;10.27;6.70;;;;;;;20.57;64.13;101127.31;2084842;28;20036;-71
2023/09/10 03:09:32;;;;;;;9.90;6.40;;;;;;;20.57;64.21;101130.03;2078702;28;20941;-71
2023/09/10 03:10:36;;;;;;;8.65;6.50;;;;;;;20.58;64.23;101125.38;2071981;28;20043;-70
2023/09/10 03:11:38;;;;;;;7.88;6.38;;;;;;;20.60;64.24;101134.84;2079520;28;20045;-71
2023/09/10 03:12:40;;;;;;;9.88;6.90;;;;;;;20.60;64.08;101128.56;2087271;28;20026;-71
2023/09/10 03:13:42;;;;;;;8.10;6.10;;;;;;;20.60;64.15;101126.63;2095518;28;20068;-71
2023/09/10 03:14:44;;;;;;;8.50;6.18;;;;;;;20.63;64.04;101129.84;2096149;28;21623;-72
2023/09/10 03:15:48;;;;;;;10.05;6.22;;;;;;;20.63;64.04;101130.66;2095827;28;20028;-71
2023/09/10 03:16:54;;;;;;;8.80;6.43;;;;;;;20.64;63.81;101128.72;2087109;28;20854;-71
2023/09/10 03:17:58;;;;;;;10.45;6.60;;;;;;;20.64;63.98;101129.50;2088555;27;20123;-72
2023/09/10 03:19:00;;;;;;;9.18;6.55;;;;;;;20.65;63.95;101130.28;2095758;28;20111;-73
2023/09/10 03:20:01;;;;;;;9.73;6.53;;;;;;;20.64;63.93;101128.72;2086891;28;20867;-71
2023/09/10 03:21:06;;;;;;;9.77;6.18;;;;;;;20.65;63.85;101128.38;2087250;28;20031;-71
2023/09/10 03:22:13;;;;;;;10.63;6.68;;;;;;;20.65;64.03;101133.03;2095758;28;20037;-72
2023/09/10 03:23:14;;;;;;;10.63;6.43;;;;;;;20.65;63.95;101124.84;2088039;28;20025;-71
2023/09/10 03:24:16;;;;;;;11.70;6.50;;;;;;;20.65;64.06;101124.84;2087437;28;20029;-71
2023/09/10 03:25:18;;;;;;;9.10;6.13;;;;;;;20.65;63.98;101127.56;2086950;28;20060;-71
2023/09/10 03:26:21;;;;;;;9.20;6.50;;;;;;;20.65;63.87;101130.28;2087839;28;20040;-71
2023/09/10 03:27:26;;;;;;;9.63;6.28;;;;;;;20.64;63.82;101128.72;2088379;28;20060;-71
2023/09/10 03:28:33;;;;;;;10.52;6.55;;;;;;;20.64;63.80;101123.25;2087781;28;20970;-73
2023/09/10 03:29:36;;;;;;;10.43;6.53;;;;;;;20.65;63.95;101130.28;2085007;28;20037;-72
2023/09/10 03:30:41;;;;;;;10.48;6.28;;;;;;;20.64;63.95;101124.03;2079195;28;20864;-72
2023/09/10 03:31:43;;;;;;;9.10;6.43;;;;;;;20.64;64.06;101128.72;2087353;28;20025;-73
2023/09/10 03:32:48;;;;;;;10.18;6.47;;;;;;;20.64;63.87;101134.97;2088481;28;21339;-72
2023/09/10 03:33:50;;;;;;;10.88;6.60;;;;;;;20.65;64.03;101127.56;2087373;28;20028;-73
2023/09/10 03:34:51;;;;;;;10.82;6.07;;;;;;;20.65;63.76;101127.56;2078881;28;21120;-72
2023/09/10 03:35:55;;;;;;;11.02;6.60;;;;;;;20.64;64.03;101129.50;2078957;28;20856;-70
2023/09/10 03:37:00;;;;;;;11.45;6.88;;;;;;;20.63;64.01;101119.72;2095459;28;20028;-71
2023/09/10 03:38:03;;;;;;;10.70;6.70;;;;;;;20.63;63.91;101124.38;2096203;27;20838;-71
2023/09/10 03:39:05;;;;;;;8.30;5.82;;;;;;;20.66;64.02;101123.72;2094938;28;20110;-70
2023/09/10 03:40:10;;;;;;;8.88;6.57;;;;;;;20.64;63.94;101124.03;2070830;28;20040;-71
2023/09/10 03:41:12;;;;;;;9.77;6.38;;;;;;;20.66;63.93;101121.00;2072110;28;20038;-72
2023/09/10 03:42:16;;;;;;;8.20;6.20;;;;;;;20.65;63.93;101119.38;2087008;28;20044;-72
2023/09/10 03:43:17;;;;;;;9.38;6.45;;;;;;;20.65;63.91;101122.09;2095609;28;20143;-72
2023/09/10 03:44:23;;;;;;;9.40;6.38;;;;;;;20.66;64.02;101126.44;2103831;28;20936;-72
2023/09/10 03:45:25;;;;;;;8.82;5.90;;;;;;;20.65;63.85;101120.19;2087315;28;20861;-73
2023/09/10 03:46:27;;;;;;;9.57;6.88;;;;;;;20.65;63.76;101119.38;2070733;28;20033;-70
2023/09/10 03:47:29;;;;;;;10.88;6.93;;;;;;;20.65;63.91;101119.38;2079211;28;20037;-70
2023/09/10 03:48:34;;;;;;;8.07;6.28;;;;;;;20.64;63.97;101117.78;2096120;28;20021;-70
2023/09/10 03:49:36;;;;;;;10.48;6.15;;;;;;;20.64;63.91;101112.31;2087423;28;20037;-70
2023/09/10 03:50:38;;;;;;;9.25;6.63;;;;;;;20.63;63.99;101118.91;2063216;28;20037;-70
2023/09/10 03:51:42;;;;;;;13.88;6.75;;;;;;;20.63;63.89;101114.25;2070550;28;20073;-70
2023/09/10 03:53:01;;;;;;;9.40;6.43;;;;;;;20.63;63.87;101111.53;2081057;28;20595;-71
2023/09/10 03:54:05;;;;;;;9.13;6.00;;;;;;;20.63;63.90;101110.72;2077708;28;20021;-71
2023/09/10 03:55:09;;;;;;;11.80;6.50;;;;;;;20.64;63.80;101112.31;2070027;28;20104;-71
2023/09/10 03:56:11;;;;;;;8.73;6.25;;;;;;;20.63;64.01;101116.19;2078646;28;20025;-71
2023/09/10 03:57:14;;;;;;;10.18;6.60;;;;;;;20.63;63.87;101111.53;2085683;28;20033;-71
2023/09/10 03:58:21;;;;;;;10.98;6.82;;;;;;;20.63;63.88;101116.19;2086344;28;20136;-71
2023/09/10 03:59:26;;;;;;;10.15;6.78;;;;;;;20.61;64.10;101105.56;2086504;28;20024;-70
2023/09/10 04:00:32;;;;;;;13.23;6.65;;;;;;;20.62;63.97;101100.91;2079447;28;20156;-71
2023/09/10 04:01:36;;;;;;;9.82;6.80;;;;;;;20.62;64.09;101109.94;2085785;28;20096;-70
2023/09/10 04:02:38;;;;;;;11.40;6.45;;;;;;;20.60;64.03;101104.00;2087198;28;20060;-70
2023/09/10 04:03:42;;;;;;;9.00;6.05;;;;;;;20.60;64.07;101102.06;2102561;28;20879;-71
2023/09/10 04:04:44;;;;;;;11.35;6.05;;;;;;;20.63;64.22;101103.31;2094622;28;20042;-71
2023/09/10 04:05:48;;;;;;;8.60;6.15;;;;;;;20.64;64.14;101098.66;2093467;28;20028;-70
2023/09/10 04:06:52;;;;;;;9.50;6.63;;;;;;;20.64;63.99;101104.91;2085845;28;20037;-72
2023/09/10 04:07:54;;;;;;;9.32;6.18;;;;;;;20.65;63.87;101100.25;2074762;28;20025;-71
2023/09/10 04:08:56;;;;;;;10.95;6.20;;;;;;;20.66;64.10;101099.13;2094211;28;20031;-70
2023/09/10 04:09:58;;;;;;;10.73;6.60;;;;;;;20.64;63.93;101107.66;2094030;28;20124;-70
2023/09/10 04:11:00;;;;;;;7.88;5.97;;;;;;;20.65;63.91;101108.44;2085865;28;20029;-70
2023/09/10 04:12:04;;;;;;;8.57;6.35;;;;;;;20.63;63.91;101094.34;2094627;27;20096;-71
2023/09/10 04:13:06;;;;;;;9.20;6.70;;;;;;;20.64;63.79;101101.38;2094501;28;20441;-71
2023/09/10 04:14:08;;;;;;;10.50;6.55;;;;;;;20.62;63.91;101092.72;2086138;28;20106;-70
2023/09/10 04:15:11;;;;;;;10.90;6.35;;;;;;;20.62;63.96;101095.44;2094934;28;20432;-71
2023/09/10 04:16:13;;;;;;;12.00;6.28;;;;;;;20.62;63.71;101095.44;2078106;28;20022;-70
2023/09/10 04:17:17;;;;;;;8.52;6.10;;;;;;;20.60;63.77;101093.84;2078404;28;21379;-71
2023/09/10 04:18:21;;;;;;;9.27;6.88;;;;;;;20.59;63.78;101100.47;2086994;28;20080;-71
2023/09/10 04:19:23;;;;;;;8.75;6.35;;;;;;;20.58;63.97;101098.84;2087321;28;20017;-71
2023/09/10 04:20:25;;;;;;;10.18;6.50;;;;;;;20.56;63.86;101100.34;2078490;28;20037;-71
2023/09/10 04:21:26;;;;;;;9.63;6.85;;;;;;;20.57;63.93;101094.53;2079612;27;20014;-70
2023/09/10 04:22:28;;;;;;;9.63;7.10;;;;;;;20.55;63.87;101099.53;2086404;28;20067;-71
2023/09/10 04:23:36;;;;;;;13.55;6.88;;;;;;;20.55;64.12;101098.72;2090092;27;20167;-71
2023/09/10 04:24:38;;;;;;;8.55;6.25;;;;;;;20.54;64.08;101095.19;2102867;28;20028;-71
2023/09/10 04:25:42;;;;;;;12.40;6.57;;;;;;;20.54;64.13;101103.38;2094846;28;20056;-71
2023/09/10 04:26:47;;;;;;;10.55;6.72;;;;;;;20.51;63.85;101095.84;2087008;28;20147;-70
2023/09/10 04:27:52;;;;;;;11.63;6.13;;;;;;;20.52;64.12;101093.91;2080134;28;20021;-71
2023/09/10 04:28:56;;;;;;;9.27;6.70;;;;;;;20.51;63.88;101101.31;2097172;27;20020;-70
2023/09/10 04:30:08;;;;;;;10.68;6.68;;;;;;;20.51;63.99;101106.78;2103059;28;20064;-71
2023/09/10 04:31:12;;;;;;;10.02;6.55;;;;;;;20.51;64.21;101101.31;2096222;27;20053;-71
2023/09/10 04:32:15;;;;;;;10.60;6.65;;;;;;;20.49;64.00;101095.38;2103906;27;20732;-71
2023/09/10 04:33:17;;;;;;;8.30;6.35;;;;;;;20.48;64.04;101093.75;2094513;28;20027;-71
2023/09/10 04:34:23;;;;;;;9.95;6.50;;;;;;;20.49;64.04;101103.56;2095905;27;20114;-71
2023/09/10 04:35:25;;;;;;;8.18;6.30;;;;;;;20.49;64.21;101098.09;2111360;27;20036;-71
2023/09/10 04:36:27;;;;;;;9.23;6.47;;;;;;;20.48;64.20;101090.22;2102905;28;20051;-71
2023/09/10 04:37:28;;;;;;;9.75;6.18;;;;;;;20.49;64.18;101100.84;2076961;28;20014;-71
2023/09/10 04:38:31;;;;;;;10.68;6.40;;;;;;;20.47;64.07;101094.88;2067421;27;20032;-71
2023/09/10 04:39:36;;;;;;;10.05;6.72;;;;;;;20.46;64.44;101090.56;2096798;27;20956;-71
2023/09/10 04:40:37;;;;;;;10.15;6.60;;;;;;;20.47;64.34;101097.63;2103391;27;20886;-71
2023/09/10 04:41:39;;;;;;;13.85;6.75;;;;;;;20.47;64.38;101096.84;2094325;28;20859;-71
2023/09/10 04:42:41;;;;;;;14.45;6.90;;;;;;;20.46;64.47;101104.22;2095041;27;20891;-72
2023/09/10 04:43:43;;;;;;;10.48;6.82;;;;;;;20.45;64.49;101096.34;2094728;28;20143;-71
2023/09/10 04:44:45;;;;;;;9.43;6.25;;;;;;;20.46;64.43;101095.22;2094738;28;20860;-71
2023/09/10 04:45:50;;;;;;;10.15;6.82;;;;;;;20.44;64.46;101092.81;2095728;27;20055;-72
2023/09/10 04:46:54;;;;;;;8.43;6.25;;;;;;;20.44;64.55;101092.03;2086423;28;20033;-72
2023/09/10 04:47:58;;;;;;;11.48;6.63;;;;;;;20.45;64.51;101094.41;2070350;28;20045;-71
2023/09/10 04:49:01;;;;;;;9.88;6.80;;;;;;;20.44;64.49;101098.28;2084584;28;20028;-72
2023/09/10 04:50:05;;;;;;;9.05;6.13;;;;;;;20.45;64.49;101094.41;2094448;28;20040;-71
2023/09/10 04:51:10;;;;;;;10.00;6.60;;;;;;;20.46;64.67;101098.75;2093878;27;20128;-71
2023/09/10 04:52:15;;;;;;;9.82;6.35;;;;;;;20.47;64.73;101103.09;2103122;27;20893;-71
2023/09/10 04:53:17;;;;;;;10.05;6.22;;;;;;;20.48;64.60;101099.22;2099310;27;20041;-71
2023/09/10 04:54:19;;;;;;;11.05;6.53;;;;;;;20.51;64.87;101103.22;2081593;28;20169;-71
2023/09/10 04:55:22;;;;;;;11.80;6.60;;;;;;;20.51;64.79;101104.03;2078135;28;20037;-72
2023/09/10 04:56:23;;;;;;;12.07;6.90;;;;;;;20.52;64.83;101100.19;2077964;28;20471;-72
2023/09/10 04:57:26;;;;;;;10.13;6.88;;;;;;;20.53;64.87;101101.00;2070021;28;21556;-72